createdAt,value
2018-11-07T00:00:58.247Z,7.09
2018-11-07T00:01:58.379Z,6.97
2018-11-07T00:02:58.597Z,7.08
2018-11-07T00:03:58.673Z,6.99
2018-11-07T00:04:58.819Z,6.97
2018-11-07T00:05:58.969Z,7.07
2018-11-07T00:06:59.112Z,6.91
2018-11-07T00:07:59.332Z,6.90
2018-11-07T00:08:59.408Z,6.86
2018-11-07T00:09:59.554Z,6.89
2018-11-07T00:10:59.702Z,6.91
2018-11-07T00:11:59.852Z,6.84
2018-11-07T00:12:59.995Z,6.94
2018-11-07T00:14:00.189Z,6.86
2018-11-07T00:15:00.299Z,6.90
2018-11-07T00:16:00.438Z,6.91
2018-11-07T00:17:00.587Z,6.81
2018-11-07T00:18:00.736Z,6.84
2018-11-07T00:19:00.879Z,6.84
2018-11-07T00:20:01.027Z,6.99
2018-11-07T00:21:01.179Z,7.04
2018-11-07T00:22:01.334Z,7.05
2018-11-07T00:23:01.464Z,7.09
2018-11-07T00:24:01.612Z,7.05
2018-11-07T00:25:01.759Z,7.07
2018-11-07T00:26:01.903Z,6.94
2018-11-07T00:27:02.051Z,6.95
2018-11-07T00:28:02.197Z,6.95
2018-11-07T00:29:02.346Z,6.83
2018-11-07T00:30:02.536Z,6.79
2018-11-07T00:31:02.634Z,6.71
2018-11-07T00:32:02.787Z,6.71
2018-11-07T00:33:02.932Z,6.80
2018-11-07T00:34:03.078Z,6.89
2018-11-07T00:35:03.299Z,6.83
2018-11-07T00:36:03.371Z,6.90
2018-11-07T00:37:03.522Z,6.95
2018-11-07T00:38:03.669Z,6.84
2018-11-07T00:39:03.811Z,6.89
2018-11-07T00:40:03.961Z,6.95
2018-11-07T00:41:04.107Z,6.94
2018-11-07T00:42:04.258Z,6.94
2018-11-07T00:43:04.403Z,6.89
2018-11-07T00:44:04.549Z,6.69
2018-11-07T00:45:04.695Z,6.86
2018-11-07T00:46:04.845Z,6.81
2018-11-07T00:47:04.990Z,6.81
2018-11-07T00:48:05.138Z,6.99
2018-11-07T00:49:05.288Z,7.04
2018-11-07T00:50:05.627Z,6.98
2018-11-07T00:51:05.596Z,7.01
2018-11-07T00:52:05.723Z,7.05
2018-11-07T00:53:05.906Z,7.04
2018-11-07T00:54:06.010Z,6.86
2018-11-07T00:55:06.154Z,6.84
2018-11-07T00:56:06.300Z,6.84
2018-11-07T00:57:06.451Z,6.83
2018-11-07T00:58:06.593Z,6.83
2018-11-07T00:59:06.743Z,6.81
2018-11-07T01:00:06.887Z,6.77
2018-11-07T01:01:07.038Z,6.84
2018-11-07T01:02:07.179Z,6.89
2018-11-07T01:03:07.325Z,6.73
2018-11-07T01:04:07.472Z,6.79
2018-11-07T01:05:07.618Z,6.84
2018-11-07T01:06:07.764Z,6.87
2018-11-07T01:07:07.912Z,6.89
2018-11-07T01:08:08.058Z,6.80
2018-11-07T01:09:08.208Z,6.89
2018-11-07T01:10:08.358Z,6.66
2018-11-07T01:11:08.500Z,6.73
2018-11-07T01:12:08.646Z,6.69
2018-11-07T01:13:08.796Z,6.68
2018-11-07T01:14:08.942Z,6.61
2018-11-07T01:15:09.085Z,6.56
2018-11-07T01:16:09.231Z,6.58
2018-11-07T01:17:09.380Z,6.48
2018-11-07T01:18:09.524Z,6.63
2018-11-07T01:19:09.671Z,6.63
2018-11-07T01:20:09.817Z,6.65
2018-11-07T01:21:09.967Z,6.61
2018-11-07T01:22:10.159Z,6.62
2018-11-07T01:23:10.260Z,6.56
2018-11-07T01:24:10.407Z,6.59
2018-11-07T01:25:10.556Z,6.48
2018-11-07T01:26:10.702Z,6.58
2018-11-07T01:27:10.851Z,6.61
2018-11-07T01:28:11.016Z,6.58
2018-11-07T01:29:11.144Z,6.47
2018-11-07T01:30:11.290Z,6.40
2018-11-07T01:31:11.438Z,6.48
2018-11-07T01:32:11.585Z,6.38
2018-11-07T01:33:11.733Z,6.44
2018-11-07T01:34:11.879Z,6.38
2018-11-07T01:35:12.028Z,6.44
2018-11-07T01:36:12.174Z,6.47
2018-11-07T01:37:12.318Z,6.41
2018-11-07T01:38:12.468Z,6.36
2018-11-07T01:39:12.612Z,6.44
2018-11-07T01:40:12.761Z,6.36
2018-11-07T01:41:12.908Z,6.29
2018-11-07T01:42:13.127Z,6.25
2018-11-07T01:43:13.200Z,6.16
2018-11-07T01:44:13.349Z,6.14
2018-11-07T01:45:13.498Z,6.03
2018-11-07T01:46:13.646Z,6.03
2018-11-07T01:47:13.793Z,5.98
2018-11-07T01:48:13.940Z,6.04
2018-11-07T01:49:14.087Z,6.04
2018-11-07T01:50:14.252Z,6.01
2018-11-07T01:51:14.378Z,6.01
2018-11-07T01:52:14.525Z,5.96
2018-11-07T01:53:14.671Z,5.95
2018-11-07T01:54:14.817Z,5.96
2018-11-07T01:55:14.969Z,5.92
2018-11-07T01:56:15.110Z,5.93
2018-11-07T01:57:15.259Z,5.88
2018-11-07T01:58:15.409Z,5.83
2018-11-07T01:59:15.554Z,5.82
2018-11-07T02:00:15.703Z,5.93
2018-11-07T02:01:15.847Z,5.86
2018-11-07T02:02:15.994Z,5.92
2018-11-07T02:03:16.142Z,6.03
2018-11-07T02:04:16.287Z,5.86
2018-11-07T02:05:16.434Z,5.88
2018-11-07T02:06:16.583Z,5.98
2018-11-07T02:07:16.729Z,6.00
2018-11-07T02:08:16.877Z,6.06
2018-11-07T02:09:17.022Z,6.14
2018-11-07T02:10:17.169Z,6.06
2018-11-07T02:11:17.320Z,6.18
2018-11-07T02:12:17.458Z,6.18
2018-11-07T02:13:17.606Z,6.16
2018-11-07T02:14:17.755Z,6.19
2018-11-07T02:15:17.899Z,6.21
2018-11-07T02:16:18.046Z,6.09
2018-11-07T02:17:18.191Z,6.11
2018-11-07T02:18:18.341Z,6.29
2018-11-07T02:19:18.487Z,6.21
2018-11-07T02:20:18.631Z,6.07
2018-11-07T02:21:18.779Z,6.04
2018-11-07T02:22:18.925Z,6.07
2018-11-07T02:23:19.072Z,6.09
2018-11-07T02:24:19.219Z,6.07
2018-11-07T02:25:19.365Z,6.04
2018-11-07T02:26:19.545Z,6.01
2018-11-07T02:27:19.661Z,6.04
2018-11-07T02:28:19.808Z,5.98
2018-11-07T02:29:19.954Z,6.01
2018-11-07T02:30:20.101Z,6.01
2018-11-07T02:31:20.248Z,6.01
2018-11-07T02:32:20.397Z,6.00
2018-11-07T02:33:20.542Z,6.04
2018-11-07T02:34:20.695Z,5.96
2018-11-07T02:35:20.837Z,5.92
2018-11-07T02:36:20.986Z,5.96
2018-11-07T02:37:21.131Z,5.92
2018-11-07T02:38:21.277Z,6.13
2018-11-07T02:39:21.426Z,6.04
2018-11-07T02:40:21.570Z,5.95
2018-11-07T02:41:21.717Z,5.95
2018-11-07T02:42:21.864Z,5.93
2018-11-07T02:43:22.009Z,5.98
2018-11-07T02:44:22.155Z,5.98
2018-11-07T02:45:22.303Z,6.04
2018-11-07T02:46:22.454Z,6.06
2018-11-07T02:47:22.598Z,6.04
2018-11-07T02:48:22.748Z,6.09
2018-11-07T02:49:22.891Z,6.16
2018-11-07T02:50:23.039Z,6.16
2018-11-07T02:51:23.184Z,6.22
2018-11-07T02:52:23.329Z,6.10
2018-11-07T02:53:23.600Z,6.06
2018-11-07T02:54:23.622Z,6.01
2018-11-07T02:55:23.769Z,5.95
2018-11-07T02:56:23.915Z,5.86
2018-11-07T02:57:24.060Z,5.96
2018-11-07T02:58:24.210Z,5.86
2018-11-07T02:59:24.356Z,5.85
2018-11-07T03:00:24.503Z,6.00
2018-11-07T03:01:24.696Z,6.00
2018-11-07T03:02:24.800Z,5.96
2018-11-07T03:03:24.944Z,6.00
2018-11-07T03:04:25.090Z,6.01
2018-11-07T03:05:25.235Z,5.98
2018-11-07T03:06:25.383Z,5.95
2018-11-07T03:07:25.530Z,5.93
2018-11-07T03:08:25.680Z,5.91
2018-11-07T03:09:25.828Z,5.92
2018-11-07T03:10:25.979Z,5.96
2018-11-07T03:11:26.116Z,5.86
2018-11-07T03:12:26.265Z,5.78
2018-11-07T03:13:26.413Z,5.82
2018-11-07T03:14:26.560Z,6.04
2018-11-07T03:15:26.708Z,5.98
2018-11-07T03:16:26.852Z,6.09
2018-11-07T03:17:27.002Z,6.03
2018-11-07T03:18:27.146Z,6.09
2018-11-07T03:19:27.294Z,6.25
2018-11-07T03:20:27.444Z,6.01
2018-11-07T03:21:27.594Z,6.11
2018-11-07T03:22:27.740Z,6.14
2018-11-07T03:23:27.884Z,5.96
2018-11-07T03:24:28.029Z,6.04
2018-11-07T03:25:28.178Z,6.01
2018-11-07T03:26:28.324Z,5.86
2018-11-07T03:27:28.472Z,5.92
2018-11-07T03:28:28.615Z,5.85
2018-11-07T03:29:28.766Z,5.81
2018-11-07T03:30:28.909Z,5.86
2018-11-07T03:31:29.057Z,5.86
2018-11-07T03:32:29.205Z,5.88
2018-11-07T03:33:29.351Z,5.93
2018-11-07T03:34:29.502Z,5.95
2018-11-07T03:35:29.642Z,5.93
2018-11-07T03:36:29.795Z,5.96
2018-11-07T03:37:29.936Z,5.93
2018-11-07T03:38:30.084Z,5.86
2018-11-07T03:39:30.294Z,5.78
2018-11-07T03:40:30.381Z,5.89
2018-11-07T03:41:30.529Z,5.77
2018-11-07T03:42:30.674Z,5.91
2018-11-07T03:43:30.828Z,5.82
2018-11-07T03:44:30.971Z,5.85
2018-11-07T03:45:31.118Z,5.86
2018-11-07T03:46:31.265Z,5.83
2018-11-07T03:47:31.417Z,5.95
2018-11-07T03:48:31.563Z,5.86
2018-11-07T03:49:31.709Z,5.78
2018-11-07T03:50:31.856Z,5.81
2018-11-07T03:51:32.006Z,5.74
2018-11-07T03:52:32.151Z,5.73
2018-11-07T03:53:32.297Z,5.68
2018-11-07T03:54:32.444Z,5.75
2018-11-07T03:55:32.592Z,5.75
2018-11-07T03:56:32.740Z,5.70
2018-11-07T03:57:32.885Z,5.81
2018-11-07T03:58:33.034Z,5.77
2018-11-07T03:59:33.179Z,5.82
2018-11-07T04:00:33.325Z,5.77
2018-11-07T04:01:33.476Z,5.86
2018-11-07T04:02:33.625Z,5.82
2018-11-07T04:03:33.771Z,5.73
2018-11-07T04:04:34.005Z,5.82
2018-11-07T04:05:34.067Z,5.83
2018-11-07T04:06:34.212Z,5.85
2018-11-07T04:07:34.360Z,5.86
2018-11-07T04:08:34.507Z,5.86
2018-11-07T04:09:34.654Z,5.89
2018-11-07T04:10:34.798Z,5.83
2018-11-07T04:11:34.944Z,5.86
2018-11-07T04:12:35.092Z,5.78
2018-11-07T04:13:35.241Z,5.78
2018-11-07T04:14:35.385Z,5.68
2018-11-07T04:15:35.531Z,5.81
2018-11-07T04:16:35.681Z,5.63
2018-11-07T04:17:35.828Z,5.64
2018-11-07T04:18:35.976Z,5.68
2018-11-07T04:19:36.123Z,5.67
2018-11-07T04:20:36.270Z,5.71
2018-11-07T04:21:36.416Z,5.77
2018-11-07T04:22:36.565Z,5.77
2018-11-07T04:23:36.712Z,5.68
2018-11-07T04:24:36.864Z,5.78
2018-11-07T04:25:37.006Z,5.86
2018-11-07T04:26:37.156Z,5.83
2018-11-07T04:27:37.302Z,5.73
2018-11-07T04:28:37.450Z,5.86
2018-11-07T04:29:37.599Z,5.88
2018-11-07T04:30:37.743Z,5.92
2018-11-07T04:31:37.888Z,6.01
2018-11-07T04:32:38.037Z,6.00
2018-11-07T04:33:38.185Z,5.92
2018-11-07T04:34:38.333Z,5.93
2018-11-07T04:35:38.480Z,5.82
2018-11-07T04:36:38.630Z,5.85
2018-11-07T04:37:38.775Z,5.92
2018-11-07T04:38:38.925Z,5.98
2018-11-07T04:39:39.071Z,6.04
2018-11-07T04:40:39.217Z,5.98
2018-11-07T04:41:39.364Z,5.82
2018-11-07T04:42:39.514Z,5.92
2018-11-07T04:43:39.661Z,5.86
2018-11-07T04:44:39.808Z,5.82
2018-11-07T04:45:39.954Z,5.83
2018-11-07T04:46:40.108Z,5.89
2018-11-07T04:47:40.247Z,5.88
2018-11-07T04:48:40.394Z,5.98
2018-11-07T04:49:40.544Z,5.98
2018-11-07T04:50:40.691Z,5.92
2018-11-07T04:51:40.839Z,5.81
2018-11-07T04:52:40.986Z,5.91
2018-11-07T04:53:41.132Z,5.78
2018-11-07T04:54:41.288Z,5.71
2018-11-07T04:55:41.424Z,5.78
2018-11-07T04:56:41.571Z,5.78
2018-11-07T04:57:41.718Z,5.81
2018-11-07T04:58:41.867Z,5.83
2018-11-07T04:59:42.015Z,5.81
2018-11-07T05:00:42.163Z,5.83
2018-11-07T05:01:42.309Z,5.82
2018-11-07T05:02:42.444Z,5.77
2018-11-07T05:03:42.589Z,5.82
2018-11-07T05:04:42.740Z,5.83
2018-11-07T05:05:42.884Z,5.67
2018-11-07T05:06:43.031Z,5.86
2018-11-07T05:07:43.176Z,5.85
2018-11-07T05:08:43.398Z,5.85
2018-11-07T05:09:43.471Z,5.85
2018-11-07T05:10:43.621Z,5.66
2018-11-07T05:11:43.765Z,5.66
2018-11-07T05:12:43.913Z,5.63
2018-11-07T05:13:44.062Z,5.64
2018-11-07T05:14:44.210Z,5.67
2018-11-07T05:15:44.355Z,5.68
2018-11-07T05:16:44.502Z,5.83
2018-11-07T05:17:44.648Z,5.67
2018-11-07T05:18:44.798Z,5.66
2018-11-07T05:19:45.023Z,5.59
2018-11-07T05:20:45.091Z,5.59
2018-11-07T05:21:45.239Z,5.68
2018-11-07T05:22:45.386Z,5.68
2018-11-07T05:23:45.532Z,5.57
2018-11-07T05:24:45.680Z,5.67
2018-11-07T05:25:45.826Z,5.70
2018-11-07T05:26:45.977Z,5.77
2018-11-07T05:27:46.118Z,5.73
2018-11-07T05:28:46.268Z,5.77
2018-11-07T05:29:46.412Z,5.83
2018-11-07T05:30:46.557Z,5.73
2018-11-07T05:31:46.711Z,5.66
2018-11-07T05:32:46.853Z,5.71
2018-11-07T05:33:47.002Z,5.73
2018-11-07T05:34:47.808Z,5.74
2018-11-07T05:35:47.509Z,5.81
2018-11-07T05:36:47.437Z,5.74
2018-11-07T05:37:47.583Z,5.83
2018-11-07T05:38:48.079Z,5.83
2018-11-07T05:39:47.893Z,5.85
2018-11-07T05:40:48.046Z,5.70
2018-11-07T05:41:48.184Z,5.75
2018-11-07T05:42:48.370Z,5.71
2018-11-07T05:43:48.476Z,5.81
2018-11-07T05:44:48.615Z,5.67
2018-11-07T05:45:48.741Z,5.67
2018-11-07T05:46:48.887Z,5.78
2018-11-07T05:47:49.036Z,5.78
2018-11-07T05:48:49.198Z,5.75
2018-11-07T05:49:49.332Z,5.83
2018-11-07T05:50:49.476Z,5.83
2018-11-07T05:51:49.618Z,5.85
2018-11-07T05:52:49.775Z,5.81
2018-11-07T05:53:49.922Z,5.81
2018-11-07T05:54:50.081Z,5.88
2018-11-07T05:55:50.218Z,5.86
2018-11-07T05:56:50.365Z,5.88
2018-11-07T05:57:50.509Z,5.85
2018-11-07T05:58:50.658Z,5.78
2018-11-07T05:59:50.805Z,5.81
2018-11-07T06:00:50.955Z,5.78
2018-11-07T06:01:51.099Z,5.81
2018-11-07T06:02:51.246Z,5.85
2018-11-07T06:03:51.395Z,5.74
2018-11-07T06:04:51.545Z,5.78
2018-11-07T06:05:51.688Z,5.67
2018-11-07T06:06:51.835Z,5.57
2018-11-07T06:07:51.983Z,5.64
2018-11-07T06:08:52.133Z,5.68
2018-11-07T06:09:52.280Z,5.68
2018-11-07T06:10:52.424Z,5.70
2018-11-07T06:11:52.569Z,5.81
2018-11-07T06:12:52.718Z,5.86
2018-11-07T06:13:52.864Z,5.85
2018-11-07T06:14:53.011Z,5.77
2018-11-07T06:15:53.192Z,5.73
2018-11-07T06:16:53.304Z,5.70
2018-11-07T06:17:53.452Z,5.71
2018-11-07T06:18:53.599Z,5.56
2018-11-07T06:19:53.746Z,5.50
2018-11-07T06:20:53.892Z,5.49
2018-11-07T06:21:54.034Z,5.48
2018-11-07T06:22:54.218Z,5.48
2018-11-07T06:23:54.325Z,5.60
2018-11-07T06:24:54.504Z,5.52
2018-11-07T06:25:54.620Z,5.50
2018-11-07T06:26:54.765Z,5.55
2018-11-07T06:27:54.910Z,5.52
2018-11-07T06:28:55.058Z,5.55
2018-11-07T06:29:55.204Z,5.56
2018-11-07T06:30:55.394Z,5.60
2018-11-07T06:31:55.497Z,5.53
2018-11-07T06:32:55.650Z,5.53
2018-11-07T06:33:55.845Z,5.43
2018-11-07T06:34:55.941Z,5.50
2018-11-07T06:35:56.091Z,5.50
2018-11-07T06:36:56.234Z,5.53
2018-11-07T06:37:56.379Z,5.63
2018-11-07T06:38:56.526Z,5.59
2018-11-07T06:39:56.673Z,5.75
2018-11-07T06:40:56.825Z,5.70
2018-11-07T06:41:56.970Z,5.74
2018-11-07T06:42:57.114Z,5.77
2018-11-07T06:43:57.260Z,5.82
2018-11-07T06:44:57.411Z,5.86
2018-11-07T06:45:57.555Z,5.86
2018-11-07T06:46:57.702Z,5.81
2018-11-07T06:47:57.850Z,5.83
2018-11-07T06:48:57.996Z,5.78
2018-11-07T06:49:58.145Z,5.83
2018-11-07T06:50:58.295Z,5.88
2018-11-07T06:51:58.436Z,6.00
2018-11-07T06:52:58.585Z,5.82
2018-11-07T06:53:58.729Z,5.85
2018-11-07T06:54:58.877Z,5.81
2018-11-07T06:55:59.027Z,5.64
2018-11-07T06:56:59.171Z,5.81
2018-11-07T06:57:59.320Z,5.86
2018-11-07T06:58:59.468Z,5.86
2018-11-07T06:59:59.613Z,5.86
2018-11-07T07:00:59.761Z,5.85
2018-11-07T07:01:59.910Z,5.96
2018-11-07T07:03:00.056Z,5.96
2018-11-07T07:04:00.206Z,5.83
2018-11-07T07:05:00.345Z,5.85
2018-11-07T07:06:00.488Z,5.86
2018-11-07T07:07:00.642Z,5.74
2018-11-07T07:08:00.791Z,5.83
2018-11-07T07:09:00.938Z,5.71
2018-11-07T07:10:01.085Z,5.71
2018-11-07T07:11:01.235Z,5.56
2018-11-07T07:12:01.385Z,5.64
2018-11-07T07:13:01.526Z,5.74
2018-11-07T07:14:01.676Z,5.86
2018-11-07T07:15:01.829Z,5.78
2018-11-07T07:16:01.974Z,5.83
2018-11-07T07:17:02.118Z,5.86
2018-11-07T07:18:02.324Z,5.77
2018-11-07T07:19:02.411Z,5.73
2018-11-07T07:20:02.558Z,5.77
2018-11-07T07:21:02.707Z,5.78
2018-11-07T07:22:02.855Z,5.73
2018-11-07T07:23:03.000Z,5.66
2018-11-07T07:24:03.147Z,5.70
2018-11-07T07:25:03.295Z,5.74
2018-11-07T07:26:03.442Z,5.75
2018-11-07T07:27:03.588Z,5.66
2018-11-07T07:28:03.737Z,5.63
2018-11-07T07:29:03.880Z,5.70
2018-11-07T07:30:04.075Z,5.63
2018-11-07T07:31:04.176Z,5.60
2018-11-07T07:32:04.328Z,5.57
2018-11-07T07:33:04.490Z,5.49
2018-11-07T07:34:04.621Z,5.52
2018-11-07T07:35:04.768Z,5.45
2018-11-07T07:36:04.916Z,5.59
2018-11-07T07:37:05.063Z,5.57
2018-11-07T07:38:05.209Z,5.52
2018-11-07T07:39:05.357Z,5.56
2018-11-07T07:40:05.504Z,5.60
2018-11-07T07:41:05.640Z,5.66
2018-11-07T07:42:05.790Z,5.81
2018-11-07T07:43:05.936Z,5.77
2018-11-07T07:44:06.079Z,5.77
2018-11-07T07:45:06.227Z,5.89
2018-11-07T07:46:06.376Z,5.86
2018-11-07T07:47:06.520Z,5.85
2018-11-07T07:48:06.667Z,5.77
2018-11-07T07:49:06.821Z,5.81
2018-11-07T07:50:06.961Z,6.01
2018-11-07T07:51:07.108Z,5.96
2018-11-07T07:52:07.255Z,5.96
2018-11-07T07:53:07.450Z,6.00
2018-11-07T07:54:07.549Z,6.14
2018-11-07T07:55:07.697Z,6.19
2018-11-07T07:56:07.846Z,6.28
2018-11-07T07:57:07.995Z,6.04
2018-11-07T07:58:08.140Z,6.10
2018-11-07T07:59:08.287Z,6.11
2018-11-07T08:00:08.433Z,6.22
2018-11-07T08:01:08.580Z,6.38
2018-11-07T08:02:08.725Z,6.28
2018-11-07T08:03:08.874Z,6.22
2018-11-07T08:04:09.022Z,6.30
2018-11-07T08:05:09.167Z,6.43
2018-11-07T08:06:09.319Z,6.43
2018-11-07T08:07:09.540Z,6.50
2018-11-07T08:08:09.611Z,6.40
2018-11-07T08:09:09.757Z,6.41
2018-11-07T08:10:09.904Z,6.51
2018-11-07T08:11:10.051Z,6.48
2018-11-07T08:12:10.199Z,6.41
2018-11-07T08:13:10.348Z,6.35
2018-11-07T08:14:10.503Z,6.54
2018-11-07T08:15:10.645Z,6.54
2018-11-07T08:16:10.790Z,6.50
2018-11-07T08:17:10.938Z,6.61
2018-11-07T08:18:11.093Z,6.62
2018-11-07T08:19:11.235Z,6.89
2018-11-07T08:20:11.382Z,6.94
2018-11-07T08:21:11.587Z,6.87
2018-11-07T08:22:11.678Z,6.95
2018-11-07T08:23:11.826Z,6.97
2018-11-07T08:24:11.974Z,6.94
2018-11-07T08:25:12.119Z,6.99
2018-11-07T08:26:12.268Z,6.89
2018-11-07T08:27:12.416Z,6.65
2018-11-07T08:28:12.565Z,6.63
2018-11-07T08:29:12.713Z,6.83
2018-11-07T08:30:12.860Z,6.87
2018-11-07T08:31:13.007Z,6.80
2018-11-07T08:32:13.154Z,6.76
2018-11-07T08:33:13.301Z,6.87
2018-11-07T08:34:13.452Z,6.79
2018-11-07T08:35:13.603Z,6.68
2018-11-07T08:36:13.749Z,6.58
2018-11-07T08:37:13.898Z,6.48
2018-11-07T08:38:14.045Z,6.73
2018-11-07T08:39:14.193Z,6.84
2018-11-07T08:40:14.338Z,6.80
2018-11-07T08:41:14.489Z,6.77
2018-11-07T08:42:14.642Z,6.80
2018-11-07T08:43:14.791Z,6.86
2018-11-07T08:44:14.938Z,6.83
2018-11-07T08:45:15.083Z,7.01
2018-11-07T08:46:15.232Z,7.13
2018-11-07T08:47:15.381Z,7.23
2018-11-07T08:48:15.596Z,7.05
2018-11-07T08:49:15.678Z,6.81
2018-11-07T08:50:15.825Z,6.83
2018-11-07T08:51:15.987Z,6.76
2018-11-07T08:52:16.121Z,6.80
2018-11-07T08:53:16.265Z,6.81
2018-11-07T08:54:16.413Z,6.95
2018-11-07T08:55:16.563Z,7.15
2018-11-07T08:56:16.712Z,7.24
2018-11-07T08:57:16.858Z,7.37
2018-11-07T08:58:17.008Z,7.23
2018-11-07T08:59:17.155Z,7.31
2018-11-07T09:00:17.305Z,7.26
2018-11-07T09:01:17.473Z,7.15
2018-11-07T09:02:17.631Z,7.17
2018-11-07T09:03:17.750Z,6.99
2018-11-07T09:04:17.899Z,7.05
2018-11-07T09:05:18.047Z,7.05
2018-11-07T09:06:18.197Z,7.16
2018-11-07T09:07:18.346Z,7.24
2018-11-07T09:08:18.495Z,7.26
2018-11-07T09:09:18.642Z,7.37
2018-11-07T09:10:18.790Z,7.50
2018-11-07T09:11:18.938Z,7.53
2018-11-07T09:12:19.086Z,7.42
2018-11-07T09:13:19.235Z,7.29
2018-11-07T09:14:19.383Z,7.29
2018-11-07T09:15:19.530Z,7.37
2018-11-07T09:16:19.679Z,7.32
2018-11-07T09:17:19.830Z,7.49
2018-11-07T09:18:19.978Z,7.56
2018-11-07T09:19:20.124Z,7.75
2018-11-07T09:20:20.278Z,7.90
2018-11-07T09:21:20.425Z,7.92
2018-11-07T09:22:20.574Z,8.10
2018-11-07T09:23:20.723Z,8.20
2018-11-07T09:24:20.936Z,8.21
2018-11-07T09:25:21.018Z,8.14
2018-11-07T09:26:21.170Z,8.18
2018-11-07T09:27:21.321Z,8.11
2018-11-07T09:28:21.468Z,8.20
2018-11-07T09:29:21.671Z,8.11
2018-11-07T09:30:21.765Z,8.21
2018-11-07T09:31:21.961Z,8.15
2018-11-07T09:32:22.062Z,8.15
2018-11-07T09:33:22.213Z,8.18
2018-11-07T09:34:22.359Z,8.22
2018-11-07T09:35:22.504Z,8.36
2018-11-07T09:36:22.655Z,8.30
2018-11-07T09:37:22.804Z,8.36
2018-11-07T09:38:22.953Z,8.35
2018-11-07T09:39:23.100Z,8.44
2018-11-07T09:40:23.249Z,8.39
2018-11-07T09:41:23.399Z,8.33
2018-11-07T09:42:23.549Z,8.44
2018-11-07T09:43:23.696Z,8.21
2018-11-07T09:44:23.844Z,8.17
2018-11-07T09:45:23.993Z,8.15
2018-11-07T09:46:24.144Z,8.18
2018-11-07T09:47:24.306Z,8.26
2018-11-07T09:48:24.609Z,8.29
2018-11-07T09:49:24.589Z,8.29
2018-11-07T09:50:24.736Z,8.26
2018-11-07T09:51:24.884Z,8.33
2018-11-07T09:52:25.036Z,8.47
2018-11-07T09:53:25.184Z,8.47
2018-11-07T09:54:25.399Z,8.50
2018-11-07T09:55:25.480Z,8.32
2018-11-07T09:56:25.628Z,8.44
2018-11-07T09:57:25.777Z,8.60
2018-11-07T09:58:25.926Z,8.76
2018-11-07T09:59:26.140Z,8.75
2018-11-07T10:00:26.224Z,8.71
2018-11-07T10:01:26.379Z,8.86
2018-11-07T10:02:26.521Z,8.91
2018-11-07T10:03:26.671Z,8.94
2018-11-07T10:04:26.819Z,9.04
2018-11-07T10:05:27.018Z,9.16
2018-11-07T10:06:27.135Z,9.21
2018-11-07T10:07:27.267Z,9.30
2018-11-07T10:08:27.417Z,9.25
2018-11-07T10:09:27.565Z,9.30
2018-11-07T10:10:27.717Z,9.31
2018-11-07T10:11:27.866Z,9.20
2018-11-07T10:12:28.049Z,9.23
2018-11-07T10:13:28.165Z,9.40
2018-11-07T10:14:28.315Z,9.45
2018-11-07T10:15:28.464Z,9.38
2018-11-07T10:16:28.612Z,9.49
2018-11-07T10:17:28.762Z,9.49
2018-11-07T10:18:28.908Z,9.63
2018-11-07T10:19:29.064Z,9.60
2018-11-07T10:20:29.268Z,9.73
2018-11-07T10:21:29.343Z,9.67
2018-11-07T10:22:29.492Z,9.82
2018-11-07T10:23:29.642Z,9.94
2018-11-07T10:24:29.792Z,10.01
2018-11-07T10:25:29.944Z,9.97
2018-11-07T10:26:30.092Z,10.07
2018-11-07T10:27:30.504Z,10.06
2018-11-07T10:28:30.496Z,10.12
2018-11-07T10:29:30.742Z,10.25
2018-11-07T10:30:30.778Z,10.25
2018-11-07T10:31:30.833Z,10.40
2018-11-07T10:32:30.982Z,10.37
2018-11-07T10:33:31.130Z,10.56
2018-11-07T10:34:31.304Z,10.59
2018-11-07T10:35:31.428Z,10.73
2018-11-07T10:36:31.581Z,10.89
2018-11-07T10:37:32.842Z,10.84
2018-11-07T10:38:32.021Z,10.92
2018-11-07T10:39:32.037Z,10.96
2018-11-07T10:40:32.185Z,11.03
2018-11-07T10:41:32.332Z,11.10
2018-11-07T10:42:32.483Z,11.16
2018-11-07T10:43:32.632Z,11.27
2018-11-07T10:44:32.826Z,11.34
2018-11-07T10:45:32.931Z,11.44
2018-11-07T10:46:33.082Z,11.46
2018-11-07T10:47:33.233Z,11.64
2018-11-07T10:48:33.383Z,11.72
2018-11-07T10:49:33.536Z,11.89
2018-11-07T10:50:33.688Z,11.89
2018-11-07T10:51:33.838Z,12.04
2018-11-07T10:52:33.996Z,12.11
2018-11-07T10:53:34.136Z,12.12
2018-11-07T10:54:34.286Z,12.19
2018-11-07T10:55:34.442Z,12.42
2018-11-07T10:56:34.592Z,12.29
2018-11-07T10:57:34.742Z,12.39
2018-11-07T10:58:34.893Z,12.37
2018-11-07T10:59:35.045Z,12.44
2018-11-07T11:00:35.201Z,12.48
2018-11-07T11:01:35.343Z,12.59
2018-11-07T11:02:35.495Z,12.63
2018-11-07T11:03:35.652Z,12.70
2018-11-07T11:04:35.797Z,12.79
2018-11-07T11:05:35.946Z,12.89
2018-11-07T11:06:36.096Z,12.84
2018-11-07T11:07:36.249Z,12.96
2018-11-07T11:08:36.400Z,13.17
2018-11-07T11:09:36.554Z,13.21
2018-11-07T11:10:36.705Z,13.27
2018-11-07T11:11:36.858Z,13.46
2018-11-07T11:12:37.011Z,13.46
2018-11-07T11:13:37.163Z,13.61
2018-11-07T11:14:37.315Z,13.56
2018-11-07T11:15:37.467Z,13.69
2018-11-07T11:16:37.628Z,13.89
2018-11-07T11:17:37.772Z,13.88
2018-11-07T11:18:37.920Z,13.89
2018-11-07T11:19:38.071Z,13.98
2018-11-07T11:20:38.224Z,13.99
2018-11-07T11:21:38.375Z,14.25
2018-11-07T11:22:38.526Z,14.20
2018-11-07T11:23:38.681Z,14.42
2018-11-07T11:24:38.833Z,14.44
2018-11-07T11:25:38.995Z,14.49
2018-11-07T11:26:39.140Z,14.56
2018-11-07T11:27:39.291Z,14.52
2018-11-07T11:28:39.444Z,14.61
2018-11-07T11:29:39.598Z,14.53
2018-11-07T11:30:39.750Z,14.52
2018-11-07T11:31:39.906Z,14.37
2018-11-07T11:32:40.059Z,14.50
2018-11-07T11:33:40.222Z,14.62
2018-11-07T11:34:40.446Z,14.86
2018-11-07T11:35:40.519Z,15.06
2018-11-07T11:36:40.668Z,15.06
2018-11-07T11:37:40.822Z,15.15
2018-11-07T11:38:40.978Z,15.43
2018-11-07T11:39:41.128Z,15.67
2018-11-07T11:40:41.319Z,16.06
2018-11-07T11:41:41.482Z,16.45
2018-11-07T11:42:41.582Z,16.53
2018-11-07T11:43:41.759Z,16.49
2018-11-07T11:44:41.884Z,16.48
2018-11-07T11:45:42.186Z,16.48
2018-11-07T11:46:42.200Z,16.53
2018-11-07T11:47:42.367Z,16.55
2018-11-07T11:48:42.498Z,16.67
2018-11-07T11:49:42.649Z,17.14
2018-11-07T11:50:42.801Z,17.32
2018-11-07T11:51:42.953Z,17.67
2018-11-07T11:52:43.111Z,18.25
2018-11-07T11:53:43.260Z,19.46
2018-11-07T11:54:43.413Z,20.86
2018-11-07T11:55:43.564Z,21.50
2018-11-07T11:56:43.714Z,21.24
2018-11-07T11:57:43.873Z,21.69
2018-11-07T11:58:44.078Z,22.59
2018-11-07T11:59:44.603Z,22.99
2018-11-07T12:00:44.327Z,23.09
2018-11-07T12:01:44.483Z,23.68
2018-11-07T12:02:44.635Z,23.70
2018-11-07T12:03:44.790Z,23.47
2018-11-07T12:04:44.946Z,23.53
2018-11-07T12:05:45.102Z,24.17
2018-11-07T12:06:45.257Z,24.10
2018-11-07T12:07:45.412Z,24.26
2018-11-07T12:08:45.594Z,24.88
2018-11-07T12:09:45.724Z,25.17
2018-11-07T12:10:45.876Z,25.42
2018-11-07T12:11:46.055Z,24.92
2018-11-07T12:12:46.196Z,25.17
2018-11-07T12:13:46.343Z,25.67
2018-11-07T12:14:46.495Z,26.06
2018-11-07T12:15:46.651Z,25.72
2018-11-07T12:16:46.810Z,25.57
2018-11-07T12:17:47.010Z,25.67
2018-11-07T12:18:47.133Z,25.56
2018-11-07T12:19:47.287Z,25.20
2018-11-07T12:20:47.443Z,25.57
2018-11-07T12:21:47.603Z,26.08
2018-11-07T12:22:47.756Z,26.22
2018-11-07T12:23:47.911Z,26.29
2018-11-07T12:24:48.070Z,25.38
2018-11-07T12:25:48.226Z,23.79
2018-11-07T12:26:48.439Z,23.11
2018-11-07T12:27:48.544Z,22.77
2018-11-07T12:28:48.699Z,22.22
2018-11-07T12:29:48.854Z,22.25
2018-11-07T12:30:49.013Z,22.20
2018-11-07T12:31:49.153Z,22.49
2018-11-07T12:32:49.310Z,22.50
2018-11-07T12:33:49.469Z,22.59
2018-11-07T12:34:49.625Z,22.80
2018-11-07T12:35:49.807Z,23.14
2018-11-07T12:36:49.961Z,23.04
2018-11-07T12:37:50.119Z,22.23
2018-11-07T12:38:50.277Z,21.53
2018-11-07T12:39:50.435Z,21.67
2018-11-07T12:40:50.593Z,21.72
2018-11-07T12:41:50.758Z,21.75
2018-11-07T12:42:50.980Z,21.38
2018-11-07T12:43:51.070Z,20.93
2018-11-07T12:44:51.228Z,20.58
2018-11-07T12:45:51.389Z,20.18
2018-11-07T12:46:51.551Z,19.69
2018-11-07T12:47:51.713Z,19.43
2018-11-07T12:48:51.869Z,19.47
2018-11-07T12:49:52.053Z,19.38
2018-11-07T12:50:52.189Z,19.55
2018-11-07T12:51:52.349Z,19.66
2018-11-07T12:52:52.508Z,20.02
2018-11-07T12:53:52.671Z,20.08
2018-11-07T12:54:52.836Z,20.56
2018-11-07T12:55:52.992Z,21.14
2018-11-07T12:56:53.153Z,21.85
2018-11-07T12:57:53.449Z,22.53
2018-11-07T12:58:53.474Z,23.15
2018-11-07T12:59:53.632Z,23.52
2018-11-07T13:00:53.790Z,24.05
2018-11-07T13:01:53.983Z,24.61
2018-11-07T13:02:54.160Z,25.06
2018-11-07T13:03:54.268Z,25.69
2018-11-07T13:04:54.427Z,25.80
2018-11-07T13:05:54.587Z,26.35
2018-11-07T13:06:54.748Z,26.64
2018-11-07T13:07:54.906Z,26.83
2018-11-07T13:08:55.068Z,27.20
2018-11-07T13:09:55.221Z,26.83
2018-11-07T13:10:55.379Z,26.02
2018-11-07T13:11:55.539Z,26.50
2018-11-07T13:12:55.696Z,26.44
2018-11-07T13:13:55.854Z,25.77
2018-11-07T13:14:56.014Z,26.29